Time;durP1;ratioP1;P1;durP2;ratioP2;P2;SDS_P1;SDS_P2;PMS_P1;PMS_P2;Temp;Humidity;BMP_temperature;BMP_pressure;BME280_temperature;BME280_humidity;BME280_pressure;Samples;Min_cycle;Max_cycle;Signal;HPM_P1;HPM_P2
2023/05/08 00:00:16;;;;;;;7.05;3.30;;;;;;;13.77;54.76;100215.28;7791137;32;39925;-90
2023/05/08 00:04:33;;;;;;;4.85;3.40;;;;;;;14.04;55.09;100203.06;7790872;32;38739;-89
2023/05/08 00:08:49;;;;;;;9.90;3.50;;;;;;;13.90;54.00;100209.19;7791231;32;36965;-89
2023/05/08 00:13:06;;;;;;;6.28;3.55;;;;;;;13.49;54.84;100209.38;7778796;32;39323;-89
2023/05/08 00:17:22;;;;;;;4.72;3.08;;;;;;;13.51;54.51;100217.34;7772729;32;39853;-89
2023/05/08 00:21:39;;;;;;;6.57;3.42;;;;;;;13.59;54.24;100218.66;7764068;32;37955;-89
2023/05/08 00:25:55;;;;;;;5.93;3.83;;;;;;;13.41;54.99;100228.31;7789662;32;36615;-89
2023/05/08 00:30:12;;;;;;;5.50;3.33;;;;;;;13.42;54.43;100228.06;7767643;32;39838;-89
2023/05/08 00:34:28;;;;;;;5.57;3.55;;;;;;;13.15;55.00;100218.25;7763501;32;40924;-90
2023/05/08 00:38:45;;;;;;;6.30;2.92;;;;;;;13.32;54.59;100230.81;7766813;32;38282;-90
2023/05/08 00:43:01;;;;;;;5.07;3.62;;;;;;;13.11;54.73;100225.38;7773707;32;36851;-89
2023/05/08 00:47:19;;;;;;;4.25;3.17;;;;;;;13.56;53.05;100220.03;7793420;32;39813;-88
2023/05/08 00:51:36;;;;;;;5.20;3.42;;;;;;;13.67;52.43;100234.50;7777855;32;39888;-88
2023/05/08 00:55:53;;;;;;;4.93;3.33;;;;;;;13.27;53.36;100230.81;7769666;32;37973;-89
2023/05/08 01:00:10;;;;;;;5.43;3.33;;;;;;;13.14;53.95;100238.53;7767316;32;37664;-89
2023/05/08 01:04:28;;;;;;;5.82;3.22;;;;;;;13.03;53.94;100245.09;7791471;32;39264;-90
2023/05/08 01:08:45;;;;;;;5.40;3.35;;;;;;;13.02;53.82;100248.13;7793224;32;39918;-90
2023/05/08 01:13:19;;;;;;;9.15;3.55;;;;;;;13.09;53.11;100246.75;7792233;32;37666;-89
2023/05/08 01:17:50;;;;;;;4.80;3.28;;;;;;;13.14;53.23;100260.41;7792006;32;37035;-90
2023/05/08 01:22:40;;;;;;;5.68;3.45;;;;;;;12.89;53.74;100266.75;7781153;32;40084;-90
2023/05/08 01:27:02;;;;;;;5.90;3.55;;;;;;;13.15;53.57;100264.78;7755430;32;40035;-90
2023/05/08 01:31:43;;;;;;;5.80;3.08;;;;;;;12.89;53.83;100265.94;7773893;32;37924;-90
2023/05/08 01:36:27;;;;;;;4.95;3.12;;;;;;;13.00;53.10;100266.72;7770750;32;36854;-90
2023/05/08 01:41:01;;;;;;;5.35;3.10;;;;;;;13.00;52.84;100275.75;7746293;32;39749;-89
2023/05/08 01:45:24;;;;;;;;;;;;;;;12.94;52.87;100272.22;7767366;32;39862;-89
2023/05/08 01:49:48;;;;;;;3.62;2.58;;;;;;;12.99;52.83;100271.41;7766940;32;38341;-89
2023/05/08 01:54:06;;;;;;;3.55;2.67;;;;;;;12.87;52.78;100270.87;7776078;32;37749;-90
2023/05/08 01:58:26;;;;;;;4.12;3.00;;;;;;;12.85;52.96;100275.78;7790926;32;39378;-91
2023/05/08 02:02:43;;;;;;;6.30;3.08;;;;;;;12.60;54.27;100274.69;7765900;32;40795;-89
2023/05/08 02:07:00;;;;;;;4.72;3.12;;;;;;;12.80;52.17;100281.25;7765666;32;37902;-89
2023/05/08 02:11:17;;;;;;;4.55;2.83;;;;;;;12.86;50.54;100274.69;7752778;32;36924;-89
2023/05/08 02:15:35;;;;;;;4.20;2.67;;;;;;;12.84;50.86;100274.16;7787459;32;39369;-88
2023/05/08 02:19:52;;;;;;;6.20;3.40;;;;;;;12.91;50.14;100278.22;7778901;32;39744;-90
2023/05/08 02:24:10;;;;;;;5.43;3.00;;;;;;;12.67;50.92;100282.62;7791170;32;37669;-88
2023/05/08 02:28:26;;;;;;;4.40;2.75;;;;;;;12.78;50.24;100270.59;7770784;32;36911;-90
2023/05/08 02:32:48;;;;;;;6.10;2.67;;;;;;;12.80;50.13;100278.50;7778469;32;39286;-89
2023/05/08 02:37:05;;;;;;;5.47;3.00;;;;;;;12.69;50.19;100278.50;7765518;32;39999;-89
2023/05/08 02:41:22;;;;;;;3.83;2.90;;;;;;;12.60;50.29;100274.69;7765690;32;38631;-89
2023/05/08 02:46:03;;;;;;;3.55;2.45;;;;;;;12.52;50.25;100277.97;7751259;32;37002;-88
2023/05/08 02:50:31;;;;;;;6.03;2.85;;;;;;;12.64;49.54;100284.00;7753821;32;39910;-88
2023/05/08 02:55:16;;;;;;;4.18;3.03;;;;;;;12.72;48.39;100288.91;7758531;32;40846;-90
2023/05/08 02:59:54;;;;;;;4.97;2.70;;;;;;;12.65;49.50;100285.63;7765995;32;38655;-89
2023/05/08 03:04:13;;;;;;;2.95;2.40;;;;;;;12.56;49.18;100287.28;7765863;32;37709;-90
2023/05/08 03:08:34;;;;;;;4.03;2.78;;;;;;;12.73;49.50;100284.28;7761632;32;39231;-89
2023/05/08 03:12:53;;;;;;;2.60;2.30;;;;;;;12.72;47.76;100277.97;7790790;32;39896;-89
2023/05/08 03:17:12;;;;;;;3.87;2.62;;;;;;;12.86;49.51;100282.91;7777899;32;38634;-89
2023/05/08 03:21:30;;;;;;;3.62;2.37;;;;;;;12.91;49.21;100291.09;7778524;32;37736;-89
2023/05/08 03:25:46;;;;;;;3.53;2.30;;;;;;;13.09;47.15;100293.28;7769825;32;39897;-89
2023/05/08 03:30:05;;;;;;;2.95;2.42;;;;;;;12.99;48.03;100301.50;7765609;32;40879;-89
2023/05/08 03:34:22;;;;;;;3.03;2.60;;;;;;;12.89;50.36;100298.78;7764770;32;37956;-89
2023/05/08 03:38:39;;;;;;;3.75;2.37;;;;;;;12.90;50.56;100303.12;7750673;32;37709;-90
2023/05/08 03:42:57;;;;;;;3.03;2.00;;;;;;;12.94;46.96;100306.97;7764424;32;39724;-89
2023/05/08 03:47:14;;;;;;;2.42;1.75;;;;;;;13.13;45.76;100305.31;7791856;32;38069;-89
2023/05/08 03:51:31;;;;;;;2.67;2.00;;;;;;;12.86;45.58;100310.25;7791575;32;37966;-90
2023/05/08 03:55:47;;;;;;;2.15;1.80;;;;;;;12.80;46.33;100314.06;7754443;32;36583;-88
2023/05/08 04:00:13;;;;;;;4.07;1.98;;;;;;;12.87;45.23;100311.91;7790093;32;39186;-89
2023/05/08 04:04:38;;;;;;;2.25;2.00;;;;;;;12.91;45.85;100318.47;7755725;32;39737;-78
2023/05/08 04:09:15;;;;;;;4.30;1.98;;;;;;;12.76;48.89;100328.31;7752063;32;38029;-79
2023/05/08 04:13:36;;;;;;;4.32;2.17;;;;;;;13.00;44.99;100327.75;7779875;32;37601;-75
2023/05/08 04:18:11;;;;;;;3.17;1.85;;;;;;;13.30;46.95;100342.53;7773374;32;39342;-92
2023/05/08 04:22:28;;;;;;;1.65;1.55;;;;;;;13.34;45.09;100338.16;7751153;32;40673;-91
2023/05/08 04:26:45;;;;;;;2.22;1.77;;;;;;;13.44;43.23;100349.09;7753512;32;37878;-92
2023/05/08 04:31:03;;;;;;;3.03;1.90;;;;;;;13.37;44.46;100348.56;7770415;32;37477;-93
2023/05/08 04:35:20;;;;;;;2.97;1.85;;;;;;;13.37;43.33;100354.03;7764377;32;38935;-90
2023/05/08 04:39:36;;;;;;;3.28;1.62;;;;;;;13.25;44.31;100361.69;7773970;32;40099;-90
2023/05/08 04:43:53;;;;;;;2.33;1.65;;;;;;;13.25;44.28;100367.19;7788835;32;37992;-90
2023/05/08 04:48:09;;;;;;;1.73;1.50;;;;;;;13.42;43.24;100373.19;7762834;32;36537;-90
2023/05/08 04:52:25;;;;;;;2.28;1.65;;;;;;;13.26;44.68;100383.34;7763418;32;40116;-90
2023/05/08 04:56:42;;;;;;;1.77;1.50;;;;;;;13.55;42.79;100387.41;7762550;32;40129;-81
2023/05/08 05:01:02;;;;;;;2.90;1.60;;;;;;;13.50;42.73;100382.75;7762203;32;38931;-89
2023/05/08 05:05:19;;;;;;;4.97;1.70;;;;;;;13.39;43.17;100392.91;7762236;32;36871;-90
2023/05/08 05:09:36;;;;;;;1.67;1.58;;;;;;;13.39;43.31;100401.12;7761849;32;39107;-89
2023/05/08 05:13:52;;;;;;;2.22;1.70;;;;;;;13.55;42.57;100401.12;7769589;32;40801;-89
2023/05/08 05:18:08;;;;;;;2.00;1.77;;;;;;;13.56;42.66;100400.03;7769913;32;38037;-89
2023/05/08 05:22:25;;;;;;;2.15;1.60;;;;;;;13.55;42.48;100403.84;7761533;32;37763;-88
2023/05/08 05:26:41;;;;;;;3.92;1.58;;;;;;;13.55;41.71;100403.84;7748249;32;39935;-88
2023/05/08 05:30:57;;;;;;;2.42;1.80;;;;;;;13.26;43.00;100409.87;7774197;32;39807;-87
2023/05/08 05:35:14;;;;;;;2.20;1.70;;;;;;;13.49;42.53;100409.34;7776972;32;38937;-89
2023/05/08 05:39:30;;;;;;;2.00;1.60;;;;;;;13.12;44.03;100410.44;7792607;32;36904;-87
2023/05/08 05:43:46;;;;;;;3.17;1.70;;;;;;;13.65;43.08;100406.56;7793162;32;40120;-89
2023/05/08 05:48:03;;;;;;;1.73;1.58;;;;;;;13.68;43.19;100403.28;7793510;32;40180;-88
2023/05/08 05:52:20;;;;;;;2.45;1.90;;;;;;;13.88;41.73;100413.34;7791832;32;37652;-89
2023/05/08 05:56:36;;;;;;;2.03;1.62;;;;;;;13.70;42.59;100423.81;7791677;32;37634;-88
2023/05/08 06:00:52;;;;;;;2.08;1.55;;;;;;;13.95;43.47;100419.34;7793104;32;39958;-89
2023/05/08 06:05:09;;;;;;;1.92;1.50;;;;;;;13.80;42.31;100422.97;7769881;32;40844;-89
2023/05/08 06:09:26;;;;;;;1.70;1.58;;;;;;;13.29;41.72;100431.22;7751940;32;38699;-88
2023/05/08 06:13:43;;;;;;;2.25;1.58;;;;;;;13.92;41.95;100430.06;7766005;32;36997;-89
2023/05/08 06:17:59;;;;;;;6.07;1.50;;;;;;;13.85;41.42;100436.69;7765960;32;38857;-90
2023/05/08 06:22:17;;;;;;;3.85;1.37;;;;;;;14.10;42.38;100421.25;7765858;32;39982;-89
2023/05/08 06:26:33;;;;;;;1.25;1.20;;;;;;;14.23;41.35;100422.56;7765826;32;37658;-89
2023/05/08 06:30:49;;;;;;;1.50;1.40;;;;;;;14.05;42.20;100429.47;7765588;32;36967;-88
2023/05/08 06:35:06;;;;;;;2.42;1.37;;;;;;;14.28;41.28;100428.84;7765468;32;39720;-89
2023/05/08 06:39:22;;;;;;;1.50;1.40;;;;;;;14.16;43.62;100425.62;7787922;32;39959;-89
2023/05/08 06:43:39;;;;;;;3.97;2.15;;;;;;;14.77;40.77;100434.66;7792683;32;37972;-89
2023/05/08 06:47:55;;;;;;;3.35;2.10;;;;;;;14.88;39.80;100430.72;7784098;32;37757;-89
2023/05/08 06:52:12;;;;;;;2.42;1.30;;;;;;;15.01;39.52;100430.09;7765684;32;39860;-89
2023/05/08 06:56:28;;;;;;;2.47;2.00;;;;;;;15.30;40.48;100434.81;7765530;32;40008;-90
2023/05/08 07:00:44;;;;;;;1.70;1.37;;;;;;;15.33;39.05;100434.25;7765316;32;38032;-89
2023/05/08 07:05:01;;;;;;;2.17;1.60;;;;;;;15.69;39.35;100439.41;7765453;32;37676;-89
2023/05/08 07:09:18;;;;;;;3.58;1.62;;;;;;;15.37;39.53;100438.06;7782612;32;39267;-90
2023/05/08 07:13:35;;;;;;;4.22;1.50;;;;;;;16.02;38.34;100428.62;7792462;32;40785;-88
2023/05/08 07:17:51;;;;;;;1.15;0.85;;;;;;;16.06;40.55;100429.69;7792245;32;37936;-89
2023/05/08 07:22:07;;;;;;;0.85;0.85;;;;;;;16.43;37.36;100427.31;7792330;32;36985;-90
2023/05/08 07:26:24;;;;;;;1.62;0.90;;;;;;;16.51;37.69;100432.16;7786226;32;39202;-89
2023/05/08 07:30:40;;;;;;;1.65;1.20;;;;;;;16.53;37.98;100425.22;7772765;32;39949;-89
2023/05/08 07:34:57;;;;;;;1.45;1.00;;;;;;;16.74;36.03;100427.69;7792208;32;38144;-89
2023/05/08 07:39:13;;;;;;;1.87;1.37;;;;;;;17.13;35.41;100432.09;7792055;32;36884;-89
2023/05/08 07:43:30;;;;;;;1.15;0.80;;;;;;;17.05;34.74;100424.53;7792103;32;38945;-88
2023/05/08 07:47:55;;;;;;;3.00;0.90;;;;;;;16.99;36.12;100425.69;7791947;32;40714;-89
2023/05/08 07:52:11;;;;;;;3.12;0.82;;;;;;;16.89;35.59;100424.75;7791011;32;38741;-89
2023/05/08 07:56:27;;;;;;;1.15;1.00;;;;;;;17.62;35.54;100427.94;7788794;32;36643;-89
2023/05/08 08:00:44;;;;;;;1.15;1.05;;;;;;;17.89;34.56;100431.91;7791763;32;39236;-89
2023/05/08 08:05:00;;;;;;;1.20;1.10;;;;;;;17.93;32.83;100432.12;7783329;32;267392;-89
2023/05/08 08:09:16;;;;;;;2.58;0.98;;;;;;;18.19;32.93;100429.66;7769419;32;38029;-90
2023/05/08 08:13:33;;;;;;;1.48;1.10;;;;;;;18.08;33.06;100426.28;7764341;32;37081;-89
2023/05/08 08:17:49;;;;;;;6.45;1.30;;;;;;;18.29;33.08;100423.94;7764257;32;39838;-88
2023/05/08 08:22:06;;;;;;;1.45;1.25;;;;;;;18.41;32.83;100425.34;7764279;32;39910;-89
2023/05/08 08:26:24;;;;;;;1.15;1.05;;;;;;;18.64;32.27;100415.97;7763912;32;38056;-89
2023/05/08 08:30:40;;;;;;;3.25;1.40;;;;;;;18.73;33.10;100422.41;7763944;32;37707;-90
2023/05/08 08:34:56;;;;;;;5.05;1.08;;;;;;;18.92;32.97;100425.06;7763878;32;39882;-89
2023/05/08 08:39:12;;;;;;;1.48;1.25;;;;;;;18.92;33.18;100418.69;7763615;32;39925;-91
2023/05/08 08:43:30;;;;;;;4.12;1.40;;;;;;;19.02;33.93;100418.44;7764272;32;38719;-89
2023/05/08 08:47:47;;;;;;;3.83;0.85;;;;;;;19.18;32.95;100415.31;7762998;32;37015;-89
2023/05/08 08:52:18;;;;;;;1.45;0.77;;;;;;;19.54;32.41;100422.69;7763455;32;40096;-88
2023/05/08 08:56:38;;;;;;;2.85;1.00;;;;;;;19.95;31.48;100421.62;7765642;32;40010;-89
2023/05/08 09:00:55;;;;;;;4.00;0.90;;;;;;;19.63;32.47;100415.28;7764008;32;38777;-89
2023/05/08 09:05:11;;;;;;;1.20;0.90;;;;;;;19.47;30.78;100423.97;7770396;32;36848;-86
2023/05/08 09:09:29;;;;;;;0.60;0.60;;;;;;;19.84;30.34;100419.13;7778739;32;39997;-87
2023/05/08 09:13:45;;;;;;;2.20;1.33;;;;;;;19.68;28.11;100409.63;7752806;32;39810;-87
2023/05/08 09:18:02;;;;;;;0.95;0.90;;;;;;;19.49;32.72;100420.91;7766568;32;38804;-87
2023/05/08 09:22:19;;;;;;;1.58;0.70;;;;;;;19.68;29.67;100412.38;7766616;32;37777;-81
2023/05/08 09:26:40;;;;;;;1.40;0.90;;;;;;;20.43;30.57;100409.72;7767115;32;39212;-87
2023/05/08 09:31:00;;;;;;;2.75;1.30;;;;;;;20.83;30.07;100395.75;7783287;32;39449;-86
2023/05/08 09:35:16;;;;;;;3.75;1.65;;;;;;;20.91;30.69;100392.16;7766400;32;38196;-87
2023/05/08 09:39:33;;;;;;;6.22;1.65;;;;;;;21.03;28.69;100393.47;7765931;32;37042;-86
2023/05/08 09:44:06;;;;;;;1.67;0.98;;;;;;;20.83;30.00;100404.06;7766282;32;39087;-87
2023/05/08 09:48:37;;;;;;;2.45;1.12;;;;;;;21.16;29.15;100403.56;7765925;32;40728;-86
2023/05/08 09:52:53;;;;;;;1.87;0.65;;;;;;;21.32;28.21;100401.91;7764412;32;37709;-87
2023/05/08 09:57:13;;;;;;;2.35;1.33;;;;;;;21.78;29.60;100390.38;7766468;32;36738;-87
2023/05/08 10:01:36;;;;;;;6.80;3.30;;;;;;;21.30;27.58;100390.34;7766070;32;39230;-87
2023/05/08 10:05:52;;;;;;;0.80;0.80;;;;;;;22.01;27.35;100400.06;7766201;32;40837;-84
2023/05/08 10:10:09;;;;;;;1.98;1.25;;;;;;;22.04;25.94;100393.03;7765629;32;38095;-85
2023/05/08 10:14:25;;;;;;;1.20;0.60;;;;;;;22.28;26.97;100397.97;7769523;32;37525;-85
2023/05/08 10:18:49;;;;;;;0.70;0.70;;;;;;;22.02;26.08;100387.78;7792868;32;39307;-86
2023/05/08 10:23:12;;;;;;;1.12;0.90;;;;;;;21.72;27.45;100373.91;7760748;32;39847;-85
2023/05/08 10:27:56;;;;;;;1.45;0.90;;;;;;;21.30;31.41;100378.41;7765902;32;38580;-85
2023/05/08 10:32:14;;;;;;;;;;;;;;;22.01;26.36;100361.22;7767493;32;36608;-83
2023/05/08 10:36:31;;;;;;;0.80;0.80;;;;;;;22.45;26.96;100364.53;7760080;32;39598;-83
2023/05/08 10:40:51;;;;;;;1.30;0.82;;;;;;;23.05;27.28;100359.63;7765746;32;39656;-84
2023/05/08 10:45:08;;;;;;;2.15;1.00;;;;;;;23.66;27.63;100351.75;7751886;32;38767;-86
2023/05/08 10:49:33;;;;;;;4.45;2.08;;;;;;;23.92;24.97;100354.22;7765612;32;37045;-87
2023/05/08 10:54:01;;;;;;;7.35;2.90;;;;;;;24.27;23.95;100346.19;7765553;32;39355;-86
2023/05/08 10:58:41;;;;;;;1.00;0.68;;;;;;;24.04;23.73;100353.41;7752502;32;39780;-87
2023/05/08 11:03:05;;;;;;;1.92;0.95;;;;;;;23.60;21.52;100349.19;7765495;32;38634;-87
2023/05/08 11:07:55;;;;;;;1.02;0.80;;;;;;;23.88;25.26;100348.53;7764584;32;36949;-86
2023/05/08 11:12:23;;;;;;;1.05;0.73;;;;;;;23.91;23.25;100347.84;7764212;32;39214;-86
2023/05/08 11:16:55;;;;;;;1.87;0.80;;;;;;;23.76;23.54;100349.31;7769053;32;39878;-86
2023/05/08 11:21:20;;;;;;;4.10;0.70;;;;;;;24.19;23.66;100342.37;7762620;32;37746;-74
2023/05/08 11:25:45;;;;;;;3.00;0.80;;;;;;;24.19;25.76;100349.91;7763940;32;37624;-73
2023/05/08 11:30:23;;;;;;;2.83;0.62;;;;;;;24.27;24.84;100334.25;7791379;32;39264;-73
2023/05/08 11:34:45;;;;;;;1.40;0.50;;;;;;;23.72;26.50;100333.69;7791469;32;40609;-73
2023/05/08 11:39:11;;;;;;;0.68;0.50;;;;;;;23.78;23.47;100332.28;7790691;32;38529;-74
2023/05/08 11:43:37;;;;;;;0.80;0.65;;;;;;;23.87;23.76;100332.19;7791789;32;37707;-74
2023/05/08 11:47:59;;;;;;;0.60;0.50;;;;;;;23.86;22.82;100328.59;7768641;32;39187;-73
2023/05/08 11:52:18;;;;;;;0.50;0.50;;;;;;;24.15;22.78;100321.16;7777715;32;40649;-74
2023/05/08 11:56:37;;;;;;;0.55;0.55;;;;;;;24.19;23.55;100333.19;7776382;32;37924;-74
2023/05/08 12:00:54;;;;;;;0.40;0.40;;;;;;;24.72;21.48;100328.44;7768571;32;36871;-74
2023/05/08 12:05:10;;;;;;;0.45;0.45;;;;;;;24.88;21.56;100316.53;7762973;32;38883;-74
2023/05/08 12:09:27;;;;;;;3.65;0.60;;;;;;;25.17;21.75;100325.66;7764143;32;39886;-74
2023/05/08 12:13:49;;;;;;;4.95;0.85;;;;;;;24.91;18.13;100318.59;7764436;32;38890;-75
2023/05/08 12:18:05;;;;;;;1.47;0.70;;;;;;;24.50;23.21;100315.03;7764357;32;37039;-81
2023/05/08 12:22:22;;;;;;;1.95;0.70;;;;;;;24.87;21.25;100317.66;7759584;32;39021;-83
2023/05/08 12:26:38;;;;;;;0.85;0.45;;;;;;;24.95;21.37;100316.72;7789843;32;40448;-84
2023/05/08 12:30:55;;;;;;;1.08;0.60;;;;;;;25.38;20.55;100320.66;7789956;32;38492;-85
2023/05/08 12:35:12;;;;;;;0.93;0.68;;;;;;;24.88;19.81;100320.09;7777556;32;37390;-84
2023/05/08 12:39:33;;;;;;;0.57;0.50;;;;;;;25.30;19.77;100316.06;7794377;32;39433;-83
2023/05/08 12:43:49;;;;;;;0.80;0.70;;;;;;;25.34;20.89;100308.63;7782279;32;40657;-84
2023/05/08 12:48:11;;;;;;;2.67;0.70;;;;;;;25.89;20.76;100300.38;7761029;32;38706;-84
2023/05/08 12:52:27;;;;;;;2.28;0.75;;;;;;;25.89;19.62;100305.13;7781853;32;36695;-84
2023/05/08 12:56:44;;;;;;;0.77;0.60;;;;;;;25.92;19.62;100298.81;7776931;32;39391;-84
2023/05/08 13:01:18;;;;;;;0.80;0.70;;;;;;;25.88;20.97;100303.53;7767658;32;39912;-76
2023/05/08 13:05:36;;;;;;;4.28;0.80;;;;;;;26.03;18.66;100305.50;7769888;32;38127;-77
2023/05/08 13:09:57;;;;;;;1.52;1.05;;;;;;;26.60;17.74;100315.13;7784757;32;36898;-78
2023/05/08 13:14:14;;;;;;;1.12;0.70;;;;;;;26.54;19.97;100307.38;7793992;32;39829;-83
2023/05/08 13:18:31;;;;;;;1.73;1.00;;;;;;;26.54;16.67;100302.59;7782440;32;40800;-85
2023/05/08 13:22:48;;;;;;;5.47;0.90;;;;;;;26.84;16.73;100299.25;7793789;32;37843;-84
2023/05/08 13:27:04;;;;;;;1.85;0.80;;;;;;;26.73;18.49;100301.00;7793312;32;37673;-86
2023/05/08 13:31:20;;;;;;;0.80;0.73;;;;;;;26.92;18.91;100295.41;7765157;32;40074;-87
2023/05/08 13:35:37;;;;;;;0.93;0.85;;;;;;;27.34;19.78;100294.59;7756381;32;40754;-85
2023/05/08 13:39:53;;;;;;;1.00;0.62;;;;;;;27.49;18.63;100300.41;7776393;32;37768;-84
2023/05/08 13:44:09;;;;;;;0.93;0.82;;;;;;;27.33;17.69;100308.94;7778820;32;37746;-85
2023/05/08 13:48:26;;;;;;;1.77;0.90;;;;;;;27.51;17.12;100298.88;7771993;32;40099;-85
2023/05/08 13:52:42;;;;;;;5.25;0.98;;;;;;;27.18;18.65;100296.66;7782423;32;39874;-86
2023/05/08 13:56:59;;;;;;;1.52;0.80;;;;;;;27.52;18.36;100294.06;7783908;32;38367;-86
2023/05/08 14:01:16;;;;;;;0.70;0.70;;;;;;;27.81;17.90;100302.94;7768071;32;37387;-85
2023/05/08 14:05:41;;;;;;;7.60;1.00;;;;;;;27.94;16.58;100290.38;7774482;32;39097;-86
2023/05/08 14:09:58;;;;;;;3.87;0.82;;;;;;;27.62;16.60;100287.03;7779789;32;39828;-85
2023/05/08 14:14:14;;;;;;;0.70;0.50;;;;;;;27.53;17.36;100296.50;7767198;32;38149;-85
2023/05/08 14:18:31;;;;;;;0.85;0.70;;;;;;;28.01;17.66;100284.03;7792664;32;37356;-85
2023/05/08 14:22:50;;;;;;;0.60;0.60;;;;;;;27.71;17.98;100285.56;7792060;32;40009;-85
2023/05/08 14:27:07;;;;;;;0.70;0.70;;;;;;;27.21;17.41;100297.91;7761849;32;40418;-85
2023/05/08 14:31:24;;;;;;;1.12;0.60;;;;;;;27.76;19.39;100301.25;7779972;32;37757;-85
2023/05/08 14:35:42;;;;;;;2.50;0.90;;;;;;;27.61;17.48;100291.81;7788980;32;36961;-81
2023/05/08 14:39:58;;;;;;;0.60;0.60;;;;;;;27.52;18.89;100294.87;7782252;32;39965;-84
2023/05/08 14:44:15;;;;;;;3.45;0.82;;;;;;;27.53;19.42;100295.69;7773660;32;40107;-84
2023/05/08 14:48:34;;;;;;;0.70;0.70;;;;;;;27.76;17.00;100311.66;7780557;32;37740;-82
2023/05/08 14:52:52;;;;;;;1.02;0.77;;;;;;;27.79;17.59;100299.69;7783346;32;36666;-83
2023/05/08 14:57:08;;;;;;;0.60;0.60;;;;;;;27.69;18.03;100303.94;7774426;32;39240;-81
2023/05/08 15:01:25;;;;;;;2.25;0.70;;;;;;;27.67;18.44;100307.12;7785102;32;40842;-83
2023/05/08 15:05:41;;;;;;;3.17;0.90;;;;;;;27.27;18.00;100305.63;7791704;32;39127;-84
2023/05/08 15:09:57;;;;;;;1.00;0.73;;;;;;;27.28;17.12;100312.84;7767155;32;36890;-81
2023/05/08 15:14:14;;;;;;;2.90;0.70;;;;;;;27.05;18.35;100312.03;7764228;32;40127;-78
2023/05/08 15:18:30;;;;;;;4.05;1.20;;;;;;;27.74;18.19;100312.03;7750729;32;40362;-80
2023/05/08 15:22:46;;;;;;;1.55;0.93;;;;;;;27.22;18.77;100313.53;7773503;32;37709;-73
2023/05/08 15:27:03;;;;;;;2.37;0.98;;;;;;;26.95;19.47;100311.44;7790349;32;37183;-76
2023/05/08 15:31:19;;;;;;;3.65;1.20;;;;;;;27.23;18.86;100320.72;7791749;32;39179;-76
2023/05/08 15:35:35;;;;;;;4.07;1.27;;;;;;;27.43;19.08;100327.12;7789802;32;40651;-75
2023/05/08 15:39:52;;;;;;;1.58;1.27;;;;;;;27.07;18.95;100327.25;7778054;32;37996;-79
2023/05/08 15:44:08;;;;;;;1.83;1.00;;;;;;;26.25;19.51;100326.38;7782007;32;36915;-76
2023/05/08 15:48:24;;;;;;;1.60;0.70;;;;;;;26.63;19.23;100326.78;7781477;32;39250;-75
2023/05/08 15:52:41;;;;;;;1.48;1.00;;;;;;;26.33;19.10;100322.53;7764141;32;40846;-83
2023/05/08 15:56:57;;;;;;;1.17;1.05;;;;;;;26.23;18.83;100331.47;7763879;32;38827;-90
2023/05/08 16:01:13;;;;;;;2.70;0.90;;;;;;;25.47;19.58;100335.28;7769106;32;36595;-86
2023/05/08 16:05:29;;;;;;;1.55;1.10;;;;;;;24.93;19.64;100338.56;7784832;32;39388;-87
2023/05/08 16:09:46;;;;;;;4.15;1.00;;;;;;;25.25;18.93;100344.19;7789626;32;39853;-85
2023/05/08 16:14:02;;;;;;;2.30;1.40;;;;;;;24.17;19.39;100343.88;7790858;32;39513;-87
2023/05/08 16:18:19;;;;;;;2.15;1.02;;;;;;;23.72;21.47;100348.41;7768846;32;37698;-87
2023/05/08 16:22:36;;;;;;;3.28;1.40;;;;;;;24.28;19.86;100347.00;7750061;32;39206;-86
2023/05/08 16:26:52;;;;;;;1.40;1.10;;;;;;;23.85;21.04;100352.03;7763497;32;39977;-88
2023/05/08 16:31:10;;;;;;;1.08;0.98;;;;;;;23.72;21.17;100350.38;7763640;32;38102;-87
2023/05/08 16:35:28;;;;;;;2.10;1.30;;;;;;;23.72;20.35;100353.16;7763494;32;36994;-87
2023/05/08 16:39:44;;;;;;;3.03;1.20;;;;;;;22.96;22.24;100352.53;7765257;32;39943;-87
2023/05/08 16:44:01;;;;;;;1.33;1.20;;;;;;;22.83;21.53;100358.00;7789950;32;40108;-86
2023/05/08 16:48:17;;;;;;;2.75;1.33;;;;;;;22.50;22.26;100372.66;7774728;32;37926;-89
2023/05/08 16:52:33;;;;;;;4.25;1.77;;;;;;;21.56;23.01;100383.94;7763096;32;37564;-88
2023/05/08 16:56:50;;;;;;;6.55;1.67;;;;;;;21.42;23.58;100383.28;7765431;32;40008;-89
2023/05/08 17:01:07;;;;;;;4.37;1.77;;;;;;;20.69;24.15;100395.09;7736488;32;39704;-89
2023/05/08 17:05:23;;;;;;;4.03;1.60;;;;;;;20.47;25.25;100399.59;7762694;32;38664;-88
2023/05/08 17:09:40;;;;;;;8.52;1.70;;;;;;;20.09;25.64;100405.72;7762086;32;36963;-89
2023/05/08 17:13:56;;;;;;;2.30;1.92;;;;;;;19.76;25.93;100405.28;7786925;32;39356;-90
2023/05/08 17:18:13;;;;;;;4.97;2.12;;;;;;;19.89;26.04;100419.00;7789487;32;38175;-90
2023/05/08 17:22:29;;;;;;;4.28;1.80;;;;;;;19.59;26.65;100430.84;7789745;32;37166;-89
2023/05/08 17:26:46;;;;;;;4.85;2.15;;;;;;;19.77;26.37;100435.38;7776616;32;37805;-90
2023/05/08 17:31:03;;;;;;;4.72;2.15;;;;;;;19.24;27.11;100442.50;7757192;32;39297;-87
2023/05/08 17:35:20;;;;;;;8.35;2.30;;;;;;;18.85;27.18;100455.06;7757860;32;39452;-87
2023/05/08 17:39:36;;;;;;;3.28;2.10;;;;;;;18.63;28.15;100453.03;7777579;32;37675;-88
2023/05/08 17:43:53;;;;;;;3.67;2.42;;;;;;;18.26;28.70;100463.16;7753335;32;37005;-85
2023/05/08 17:48:10;;;;;;;8.05;3.10;;;;;;;17.83;30.02;100474.44;7764984;32;40057;-85
2023/05/08 17:52:26;;;;;;;7.10;3.15;;;;;;;17.74;29.55;100479.03;7766308;32;39922;-85
2023/05/08 17:56:43;;;;;;;4.50;2.60;;;;;;;17.81;29.75;100484.97;7766928;32;37901;-86
2023/05/08 18:00:59;;;;;;;4.57;2.70;;;;;;;17.39;30.32;100484.06;7766023;32;36769;-85
2023/05/08 18:05:16;;;;;;;5.00;2.95;;;;;;;17.24;30.85;100491.44;7766400;32;39321;-85
2023/05/08 18:09:32;;;;;;;6.05;3.05;;;;;;;16.87;31.54;100495.03;7771244;32;39924;-76
2023/05/08 18:13:50;;;;;;;5.35;2.62;;;;;;;16.87;31.24;100509.59;7782396;32;38102;-86
2023/05/08 18:18:07;;;;;;;7.10;3.70;;;;;;;16.53;31.97;100505.06;7771710;32;37007;-85
2023/05/08 18:22:23;;;;;;;7.57;4.03;;;;;;;16.55;32.12;100514.97;7781217;32;39125;-85
2023/05/08 18:26:39;;;;;;;6.53;3.65;;;;;;;15.95;32.71;100540.91;7762005;32;40613;-84
2023/05/08 18:30:56;;;;;;;5.93;3.20;;;;;;;15.63;33.59;100545.00;7791361;32;38873;-84
2023/05/08 18:35:12;;;;;;;6.47;3.55;;;;;;;15.80;33.74;100549.28;7792488;32;36929;-83
2023/05/08 18:39:29;;;;;;;5.78;3.28;;;;;;;15.51;33.54;100561.03;7792686;32;40019;-84
2023/05/08 18:43:45;;;;;;;5.43;3.30;;;;;;;15.43;33.43;100558.91;7777216;32;39902;-84
2023/05/08 18:48:01;;;;;;;5.87;3.10;;;;;;;15.36;33.87;100573.75;7765592;32;38736;-84
2023/05/08 18:52:18;;;;;;;7.35;3.45;;;;;;;15.42;34.04;100584.72;7789063;32;36698;-84
2023/05/08 18:56:34;;;;;;;6.12;3.28;;;;;;;15.29;33.92;100598.00;7786672;32;39120;-86
2023/05/08 19:00:53;;;;;;;5.43;3.50;;;;;;;15.48;33.58;100600.09;7771697;32;39885;-84
2023/05/08 19:05:10;;;;;;;5.82;3.17;;;;;;;15.13;34.40;100600.00;7773501;32;37716;-86
2023/05/08 19:09:26;;;;;;;8.25;3.45;;;;;;;15.00;34.86;100608.84;7772585;32;36896;-85
2023/05/08 19:13:43;;;;;;;6.68;3.15;;;;;;;14.48;35.44;100616.41;7775577;32;40233;-85
2023/05/08 19:18:02;;;;;;;4.90;3.33;;;;;;;14.45;35.64;100619.69;7776521;32;39674;-85
2023/05/08 19:22:23;;;;;;;5.45;3.20;;;;;;;14.29;36.09;100616.16;7772588;32;39020;-85
2023/05/08 19:26:55;;;;;;;9.07;3.53;;;;;;;14.09;36.25;100617.03;7774217;32;34724;-84
2023/05/08 19:31:11;;;;;;;5.32;3.60;;;;;;;14.20;35.81;100618.62;7775600;32;39186;-84
2023/05/08 19:35:28;;;;;;;5.53;3.33;;;;;;;14.54;35.04;100633.66;7778264;32;39746;-85
2023/05/08 19:39:46;;;;;;;5.62;3.12;;;;;;;13.79;35.98;100618.62;7773571;32;38657;-85
2023/05/08 19:44:03;;;;;;;5.03;3.30;;;;;;;14.14;35.65;100627.97;7771338;32;37008;-85
2023/05/08 19:48:19;;;;;;;8.50;3.42;;;;;;;13.83;36.70;100622.50;7770951;32;39951;-86
2023/05/08 19:52:36;;;;;;;5.93;3.58;;;;;;;13.98;36.10;100627.16;7773008;32;40667;-85
2023/05/08 19:56:52;;;;;;;6.25;3.25;;;;;;;14.21;35.18;100625.78;7784718;32;37901;-85
2023/05/08 20:01:08;;;;;;;6.65;3.28;;;;;;;13.89;36.03;100624.13;7789446;32;36765;-85
2023/05/08 20:05:25;;;;;;;4.05;3.00;;;;;;;13.86;35.44;100632.06;7768685;32;39361;-84